sensor_id;sensor_type;location;lat;lon;timestamp;P1;durP1;ratioP1;P2;durP2;ratioP2
8252;SDS011;61313;48.396;10.008;2023-09-08T00:02:03;8.20;;;7.40;;
8252;SDS011;61313;48.396;10.008;2023-09-08T00:04:28;13.63;;;8.20;;
8252;SDS011;61313;48.396;10.008;2023-09-08T00:06:54;9.70;;;8.20;;
8252;SDS011;61313;48.396;10.008;2023-09-08T00:09:19;7.70;;;6.83;;
8252;SDS011;61313;48.396;10.008;2023-09-08T00:11:45;10.43;;;8.17;;
8252;SDS011;61313;48.396;10.008;2023-09-08T00:14:10;9.70;;;7.90;;
8252;SDS011;61313;48.396;10.008;2023-09-08T00:16:35;12.80;;;8.10;;
8252;SDS011;61313;48.396;10.008;2023-09-08T00:19:02;10.30;;;7.57;;
8252;SDS011;61313;48.396;10.008;2023-09-08T00:21:27;11.50;;;7.80;;
8252;SDS011;61313;48.396;10.008;2023-09-08T00:23:53;8.27;;;7.47;;
8252;SDS011;61313;48.396;10.008;2023-09-08T00:26:18;8.47;;;7.47;;
8252;SDS011;61313;48.396;10.008;2023-09-08T00:28:44;9.20;;;7.67;;
8252;SDS011;61313;48.396;10.008;2023-09-08T00:31:09;9.50;;;7.97;;
8252;SDS011;61313;48.396;10.008;2023-09-08T00:33:35;11.73;;;7.93;;
8252;SDS011;61313;48.396;10.008;2023-09-08T00:36:00;9.17;;;8.10;;
8252;SDS011;61313;48.396;10.008;2023-09-08T00:38:26;10.23;;;7.93;;
8252;SDS011;61313;48.396;10.008;2023-09-08T00:40:51;44.47;;;11.60;;
8252;SDS011;61313;48.396;10.008;2023-09-08T00:43:17;10.97;;;8.93;;
8252;SDS011;61313;48.396;10.008;2023-09-08T00:45:43;9.90;;;7.97;;
8252;SDS011;61313;48.396;10.008;2023-09-08T00:48:09;11.70;;;7.70;;
8252;SDS011;61313;48.396;10.008;2023-09-08T00:50:35;12.40;;;8.03;;
8252;SDS011;61313;48.396;10.008;2023-09-08T00:53:02;9.27;;;8.07;;
8252;SDS011;61313;48.396;10.008;2023-09-08T00:55:29;9.53;;;8.03;;
8252;SDS011;61313;48.396;10.008;2023-09-08T00:57:56;13.27;;;9.40;;
8252;SDS011;61313;48.396;10.008;2023-09-08T01:00:22;8.60;;;7.80;;
8252;SDS011;61313;48.396;10.008;2023-09-08T01:02:47;11.00;;;7.70;;
8252;SDS011;61313;48.396;10.008;2023-09-08T01:05:13;9.23;;;7.60;;
8252;SDS011;61313;48.396;10.008;2023-09-08T01:07:39;9.03;;;7.67;;
8252;SDS011;61313;48.396;10.008;2023-09-08T01:10:05;7.33;;;6.50;;
8252;SDS011;61313;48.396;10.008;2023-09-08T01:12:32;11.33;;;7.57;;
8252;SDS011;61313;48.396;10.008;2023-09-08T01:14:59;10.17;;;8.70;;
8252;SDS011;61313;48.396;10.008;2023-09-08T01:17:26;10.27;;;8.00;;
8252;SDS011;61313;48.396;10.008;2023-09-08T01:19:52;8.20;;;7.40;;
8252;SDS011;61313;48.396;10.008;2023-09-08T01:25:33;12.60;;;7.57;;
8252;SDS011;61313;48.396;10.008;2023-09-08T01:28:05;10.27;;;8.43;;
8252;SDS011;61313;48.396;10.008;2023-09-08T01:30:31;10.00;;;7.87;;
8252;SDS011;61313;48.396;10.008;2023-09-08T01:32:58;10.00;;;8.80;;
8252;SDS011;61313;48.396;10.008;2023-09-08T01:35:24;8.50;;;7.20;;
8252;SDS011;61313;48.396;10.008;2023-09-08T01:37:50;11.83;;;8.90;;
8252;SDS011;61313;48.396;10.008;2023-09-08T01:40:16;10.40;;;8.20;;
8252;SDS011;61313;48.396;10.008;2023-09-08T01:42:44;9.00;;;8.10;;
8252;SDS011;61313;48.396;10.008;2023-09-08T01:45:10;10.57;;;7.90;;
8252;SDS011;61313;48.396;10.008;2023-09-08T01:47:35;8.33;;;7.03;;
8252;SDS011;61313;48.396;10.008;2023-09-08T01:50:01;9.43;;;7.97;;
8252;SDS011;61313;48.396;10.008;2023-09-08T01:52:26;11.57;;;8.20;;
8252;SDS011;61313;48.396;10.008;2023-09-08T01:54:52;11.33;;;8.73;;
8252;SDS011;61313;48.396;10.008;2023-09-08T01:57:18;14.00;;;8.43;;
8252;SDS011;61313;48.396;10.008;2023-09-08T01:59:44;10.03;;;7.93;;
8252;SDS011;61313;48.396;10.008;2023-09-08T02:02:10;9.57;;;8.60;;
8252;SDS011;61313;48.396;10.008;2023-09-08T02:04:35;9.07;;;8.00;;
8252;SDS011;61313;48.396;10.008;2023-09-08T02:07:01;11.00;;;7.93;;
8252;SDS011;61313;48.396;10.008;2023-09-08T02:09:32;9.90;;;7.27;;
8252;SDS011;61313;48.396;10.008;2023-09-08T02:11:58;11.67;;;8.37;;
8252;SDS011;61313;48.396;10.008;2023-09-08T02:14:24;8.57;;;7.77;;
8252;SDS011;61313;48.396;10.008;2023-09-08T02:16:50;8.40;;;7.60;;
8252;SDS011;61313;48.396;10.008;2023-09-08T02:19:15;8.10;;;7.40;;
8252;SDS011;61313;48.396;10.008;2023-09-08T02:21:40;14.97;;;8.27;;
8252;SDS011;61313;48.396;10.008;2023-09-08T02:24:06;9.93;;;7.67;;
8252;SDS011;61313;48.396;10.008;2023-09-08T02:26:31;9.80;;;8.10;;
8252;SDS011;61313;48.396;10.008;2023-09-08T02:28:58;12.10;;;8.50;;
8252;SDS011;61313;48.396;10.008;2023-09-08T02:31:24;10.50;;;8.47;;
8252;SDS011;61313;48.396;10.008;2023-09-08T02:33:50;11.60;;;8.50;;
8252;SDS011;61313;48.396;10.008;2023-09-08T02:36:16;10.63;;;8.70;;
8252;SDS011;61313;48.396;10.008;2023-09-08T02:38:41;11.30;;;8.70;;
8252;SDS011;61313;48.396;10.008;2023-09-08T02:41:07;10.07;;;8.33;;
8252;SDS011;61313;48.396;10.008;2023-09-08T02:43:32;9.43;;;7.80;;
8252;SDS011;61313;48.396;10.008;2023-09-08T02:45:57;9.43;;;8.40;;
8252;SDS011;61313;48.396;10.008;2023-09-08T02:48:24;10.20;;;8.93;;
8252;SDS011;61313;48.396;10.008;2023-09-08T02:50:49;9.10;;;7.60;;
8252;SDS011;61313;48.396;10.008;2023-09-08T02:53:15;16.23;;;9.90;;
8252;SDS011;61313;48.396;10.008;2023-09-08T02:55:40;10.03;;;8.00;;
8252;SDS011;61313;48.396;10.008;2023-09-08T02:58:05;9.27;;;8.33;;
8252;SDS011;61313;48.396;10.008;2023-09-08T03:00:31;9.93;;;8.97;;
8252;SDS011;61313;48.396;10.008;2023-09-08T03:02:56;9.17;;;8.33;;
8252;SDS011;61313;48.396;10.008;2023-09-08T03:05:21;11.50;;;8.60;;
8252;SDS011;61313;48.396;10.008;2023-09-08T03:07:47;9.87;;;8.50;;
8252;SDS011;61313;48.396;10.008;2023-09-08T03:10:14;10.10;;;8.83;;
8252;SDS011;61313;48.396;10.008;2023-09-08T03:12:39;10.30;;;9.17;;
8252;SDS011;61313;48.396;10.008;2023-09-08T03:15:05;11.83;;;9.63;;
8252;SDS011;61313;48.396;10.008;2023-09-08T03:17:31;11.20;;;8.73;;
8252;SDS011;61313;48.396;10.008;2023-09-08T03:19:56;9.87;;;8.40;;
8252;SDS011;61313;48.396;10.008;2023-09-08T03:22:21;12.70;;;8.67;;
8252;SDS011;61313;48.396;10.008;2023-09-08T03:24:47;9.67;;;8.77;;
8252;SDS011;61313;48.396;10.008;2023-09-08T03:27:12;11.23;;;8.73;;
8252;SDS011;61313;48.396;10.008;2023-09-08T03:29:38;9.90;;;8.90;;
8252;SDS011;61313;48.396;10.008;2023-09-08T03:32:03;9.20;;;8.20;;
8252;SDS011;61313;48.396;10.008;2023-09-08T03:34:29;10.70;;;8.90;;
8252;SDS011;61313;48.396;10.008;2023-09-08T03:36:54;9.77;;;8.73;;
8252;SDS011;61313;48.396;10.008;2023-09-08T03:39:19;10.33;;;9.27;;
8252;SDS011;61313;48.396;10.008;2023-09-08T03:41:45;13.43;;;9.80;;
8252;SDS011;61313;48.396;10.008;2023-09-08T03:44:11;10.53;;;9.37;;
8252;SDS011;61313;48.396;10.008;2023-09-08T03:46:36;11.00;;;9.40;;
8252;SDS011;61313;48.396;10.008;2023-09-08T03:49:02;13.17;;;8.53;;
8252;SDS011;61313;48.396;10.008;2023-09-08T03:51:28;9.37;;;8.57;;
8252;SDS011;61313;48.396;10.008;2023-09-08T03:53:53;9.53;;;8.60;;
8252;SDS011;61313;48.396;10.008;2023-09-08T03:56:19;13.63;;;9.27;;
8252;SDS011;61313;48.396;10.008;2023-09-08T03:58:47;11.07;;;9.93;;
8252;SDS011;61313;48.396;10.008;2023-09-08T04:01:13;9.33;;;8.37;;
8252;SDS011;61313;48.396;10.008;2023-09-08T04:03:39;10.50;;;8.93;;
8252;SDS011;61313;48.396;10.008;2023-09-08T04:06:04;11.43;;;8.77;;
8252;SDS011;61313;48.396;10.008;2023-09-08T04:08:29;10.23;;;8.80;;
8252;SDS011;61313;48.396;10.008;2023-09-08T04:10:55;10.37;;;8.87;;
8252;SDS011;61313;48.396;10.008;2023-09-08T04:13:20;11.20;;;8.87;;
8252;SDS011;61313;48.396;10.008;2023-09-08T04:15:45;13.63;;;9.60;;
8252;SDS011;61313;48.396;10.008;2023-09-08T04:18:11;10.40;;;8.87;;
8252;SDS011;61313;48.396;10.008;2023-09-08T04:20:36;10.00;;;8.40;;
8252;SDS011;61313;48.396;10.008;2023-09-08T04:23:02;18.57;;;12.10;;
8252;SDS011;61313;48.396;10.008;2023-09-08T04:25:27;13.57;;;8.90;;
8252;SDS011;61313;48.396;10.008;2023-09-08T04:27:52;20.53;;;9.40;;
8252;SDS011;61313;48.396;10.008;2023-09-08T04:30:18;10.43;;;9.43;;
8252;SDS011;61313;48.396;10.008;2023-09-08T04:32:43;10.17;;;9.17;;
8252;SDS011;61313;48.396;10.008;2023-09-08T04:35:09;11.83;;;9.53;;
8252;SDS011;61313;48.396;10.008;2023-09-08T04:37:35;32.57;;;12.83;;
8252;SDS011;61313;48.396;10.008;2023-09-08T04:40:01;15.77;;;10.70;;
8252;SDS011;61313;48.396;10.008;2023-09-08T04:42:27;16.10;;;9.90;;
8252;SDS011;61313;48.396;10.008;2023-09-08T04:44:54;11.40;;;9.60;;
8252;SDS011;61313;48.396;10.008;2023-09-08T04:47:19;12.00;;;10.00;;
8252;SDS011;61313;48.396;10.008;2023-09-08T04:49:45;11.37;;;9.40;;
8252;SDS011;61313;48.396;10.008;2023-09-08T04:52:10;10.87;;;8.90;;
8252;SDS011;61313;48.396;10.008;2023-09-08T04:54:36;10.73;;;9.40;;
8252;SDS011;61313;48.396;10.008;2023-09-08T04:57:02;15.17;;;9.60;;
8252;SDS011;61313;48.396;10.008;2023-09-08T04:59:27;12.67;;;8.17;;
8252;SDS011;61313;48.396;10.008;2023-09-08T05:01:53;10.03;;;8.13;;
8252;SDS011;61313;48.396;10.008;2023-09-08T05:04:18;17.53;;;10.07;;
8252;SDS011;61313;48.396;10.008;2023-09-08T05:06:44;12.43;;;9.63;;
8252;SDS011;61313;48.396;10.008;2023-09-08T05:09:10;10.77;;;8.73;;
8252;SDS011;61313;48.396;10.008;2023-09-08T05:11:35;11.30;;;9.00;;
8252;SDS011;61313;48.396;10.008;2023-09-08T05:14:00;17.03;;;10.63;;
8252;SDS011;61313;48.396;10.008;2023-09-08T05:16:27;14.90;;;10.50;;
8252;SDS011;61313;48.396;10.008;2023-09-08T05:19:05;18.30;;;10.70;;
8252;SDS011;61313;48.396;10.008;2023-09-08T05:21:31;21.10;;;9.57;;
8252;SDS011;61313;48.396;10.008;2023-09-08T05:23:57;14.87;;;11.07;;
8252;SDS011;61313;48.396;10.008;2023-09-08T05:26:23;15.33;;;12.70;;
8252;SDS011;61313;48.396;10.008;2023-09-08T05:28:48;12.60;;;10.83;;
8252;SDS011;61313;48.396;10.008;2023-09-08T05:31:13;16.27;;;8.63;;
8252;SDS011;61313;48.396;10.008;2023-09-08T05:33:39;38.63;;;10.47;;
8252;SDS011;61313;48.396;10.008;2023-09-08T05:36:04;12.67;;;11.17;;
8252;SDS011;61313;48.396;10.008;2023-09-08T05:38:30;12.50;;;9.87;;
8252;SDS011;61313;48.396;10.008;2023-09-08T05:40:55;16.50;;;10.50;;
8252;SDS011;61313;48.396;10.008;2023-09-08T05:43:21;14.77;;;9.47;;
8252;SDS011;61313;48.396;10.008;2023-09-08T05:45:47;29.00;;;11.93;;
8252;SDS011;61313;48.396;10.008;2023-09-08T05:48:13;11.80;;;9.73;;
8252;SDS011;61313;48.396;10.008;2023-09-08T05:50:38;12.43;;;9.13;;
8252;SDS011;61313;48.396;10.008;2023-09-08T05:53:03;14.57;;;9.10;;
8252;SDS011;61313;48.396;10.008;2023-09-08T05:55:29;12.10;;;9.37;;
8252;SDS011;61313;48.396;10.008;2023-09-08T05:57:55;22.37;;;10.47;;
8252;SDS011;61313;48.396;10.008;2023-09-08T06:00:20;12.33;;;9.10;;
8252;SDS011;61313;48.396;10.008;2023-09-08T06:02:46;11.03;;;9.67;;
8252;SDS011;61313;48.396;10.008;2023-09-08T06:05:11;27.40;;;11.50;;
8252;SDS011;61313;48.396;10.008;2023-09-08T06:07:36;10.63;;;9.10;;
8252;SDS011;61313;48.396;10.008;2023-09-08T06:10:02;14.20;;;10.10;;
8252;SDS011;61313;48.396;10.008;2023-09-08T06:12:28;11.10;;;10.00;;
8252;SDS011;61313;48.396;10.008;2023-09-08T06:14:54;20.37;;;10.20;;
8252;SDS011;61313;48.396;10.008;2023-09-08T06:17:19;11.83;;;10.03;;
8252;SDS011;61313;48.396;10.008;2023-09-08T06:19:44;12.50;;;10.17;;
8252;SDS011;61313;48.396;10.008;2023-09-08T06:22:10;18.23;;;9.60;;
8252;SDS011;61313;48.396;10.008;2023-09-08T06:24:35;17.70;;;10.50;;
8252;SDS011;61313;48.396;10.008;2023-09-08T06:27:01;14.47;;;9.97;;
8252;SDS011;61313;48.396;10.008;2023-09-08T06:29:26;10.77;;;9.67;;
8252;SDS011;61313;48.396;10.008;2023-09-08T06:31:52;12.30;;;9.50;;
8252;SDS011;61313;48.396;10.008;2023-09-08T06:34:17;17.03;;;8.80;;
8252;SDS011;61313;48.396;10.008;2023-09-08T06:36:46;11.47;;;9.63;;
8252;SDS011;61313;48.396;10.008;2023-09-08T06:39:12;11.00;;;9.13;;
8252;SDS011;61313;48.396;10.008;2023-09-08T06:41:37;10.33;;;9.23;;
8252;SDS011;61313;48.396;10.008;2023-09-08T06:44:03;10.50;;;9.50;;
8252;SDS011;61313;48.396;10.008;2023-09-08T06:46:29;13.23;;;9.60;;
8252;SDS011;61313;48.396;10.008;2023-09-08T06:48:55;11.97;;;10.87;;
8252;SDS011;61313;48.396;10.008;2023-09-08T06:51:20;13.77;;;9.30;;
8252;SDS011;61313;48.396;10.008;2023-09-08T06:53:53;11.13;;;10.10;;
8252;SDS011;61313;48.396;10.008;2023-09-08T06:56:20;11.80;;;10.70;;
8252;SDS011;61313;48.396;10.008;2023-09-08T06:58:46;11.17;;;9.07;;
8252;SDS011;61313;48.396;10.008;2023-09-08T07:01:11;11.17;;;7.80;;
8252;SDS011;61313;48.396;10.008;2023-09-08T07:03:37;15.07;;;10.57;;
8252;SDS011;61313;48.396;10.008;2023-09-08T07:06:02;15.50;;;9.17;;
8252;SDS011;61313;48.396;10.008;2023-09-08T07:08:28;15.73;;;9.60;;
8252;SDS011;61313;48.396;10.008;2023-09-08T07:10:54;11.50;;;10.40;;
8252;SDS011;61313;48.396;10.008;2023-09-08T07:13:20;15.20;;;9.90;;
8252;SDS011;61313;48.396;10.008;2023-09-08T07:15:46;12.67;;;8.87;;
8252;SDS011;61313;48.396;10.008;2023-09-08T07:18:11;12.53;;;11.00;;
8252;SDS011;61313;48.396;10.008;2023-09-08T07:20:37;12.20;;;10.90;;
8252;SDS011;61313;48.396;10.008;2023-09-08T07:23:02;11.10;;;10.00;;
8252;SDS011;61313;48.396;10.008;2023-09-08T07:25:28;10.63;;;9.53;;
8252;SDS011;61313;48.396;10.008;2023-09-08T07:27:53;12.93;;;11.53;;
8252;SDS011;61313;48.396;10.008;2023-09-08T07:30:19;12.20;;;11.00;;
8252;SDS011;61313;48.396;10.008;2023-09-08T07:32:45;13.83;;;10.70;;
8252;SDS011;61313;48.396;10.008;2023-09-08T07:35:11;12.77;;;10.93;;
8252;SDS011;61313;48.396;10.008;2023-09-08T07:37:39;12.03;;;10.83;;
8252;SDS011;61313;48.396;10.008;2023-09-08T07:40:06;12.23;;;11.10;;
8252;SDS011;61313;48.396;10.008;2023-09-08T07:42:34;12.60;;;10.17;;
8252;SDS011;61313;48.396;10.008;2023-09-08T07:44:59;11.67;;;10.50;;
8252;SDS011;61313;48.396;10.008;2023-09-08T07:47:25;11.00;;;9.77;;
8252;SDS011;61313;48.396;10.008;2023-09-08T07:49:50;13.93;;;10.57;;
8252;SDS011;61313;48.396;10.008;2023-09-08T07:52:16;13.07;;;11.37;;
8252;SDS011;61313;48.396;10.008;2023-09-08T07:54:42;10.40;;;8.73;;
8252;SDS011;61313;48.396;10.008;2023-09-08T07:57:07;11.97;;;10.60;;
8252;SDS011;61313;48.396;10.008;2023-09-08T07:59:33;12.70;;;11.40;;
8252;SDS011;61313;48.396;10.008;2023-09-08T08:01:58;13.10;;;11.83;;
8252;SDS011;61313;48.396;10.008;2023-09-08T08:04:24;14.73;;;11.00;;
8252;SDS011;61313;48.396;10.008;2023-09-08T08:06:49;17.53;;;13.50;;
8252;SDS011;61313;48.396;10.008;2023-09-08T08:09:15;11.87;;;10.67;;
8252;SDS011;61313;48.396;10.008;2023-09-08T08:11:40;13.93;;;12.50;;
8252;SDS011;61313;48.396;10.008;2023-09-08T08:14:06;13.73;;;10.17;;
8252;SDS011;61313;48.396;10.008;2023-09-08T08:16:32;11.80;;;10.73;;
8252;SDS011;61313;48.396;10.008;2023-09-08T08:18:57;22.80;;;10.47;;
8252;SDS011;61313;48.396;10.008;2023-09-08T08:21:24;14.20;;;9.97;;
8252;SDS011;61313;48.396;10.008;2023-09-08T08:23:49;11.73;;;10.60;;
8252;SDS011;61313;48.396;10.008;2023-09-08T08:26:16;13.27;;;9.50;;
8252;SDS011;61313;48.396;10.008;2023-09-08T08:28:43;12.27;;;11.10;;
8252;SDS011;61313;48.396;10.008;2023-09-08T08:31:08;18.63;;;10.60;;
8252;SDS011;61313;48.396;10.008;2023-09-08T08:33:34;15.50;;;11.80;;
8252;SDS011;61313;48.396;10.008;2023-09-08T08:35:59;20.83;;;12.90;;
8252;SDS011;61313;48.396;10.008;2023-09-08T08:38:25;12.47;;;10.60;;
8252;SDS011;61313;48.396;10.008;2023-09-08T08:40:51;18.87;;;10.63;;
8252;SDS011;61313;48.396;10.008;2023-09-08T08:43:16;12.70;;;10.80;;
8252;SDS011;61313;48.396;10.008;2023-09-08T08:45:42;17.93;;;9.10;;
8252;SDS011;61313;48.396;10.008;2023-09-08T08:48:08;13.57;;;10.90;;
8252;SDS011;61313;48.396;10.008;2023-09-08T08:50:34;12.83;;;11.53;;
8252;SDS011;61313;48.396;10.008;2023-09-08T08:53:00;13.57;;;10.60;;
8252;SDS011;61313;48.396;10.008;2023-09-08T08:55:27;11.43;;;10.37;;
8252;SDS011;61313;48.396;10.008;2023-09-08T08:57:55;15.73;;;12.53;;
8252;SDS011;61313;48.396;10.008;2023-09-08T09:00:26;24.83;;;20.17;;
8252;SDS011;61313;48.396;10.008;2023-09-08T09:02:52;21.90;;;16.90;;
8252;SDS011;61313;48.396;10.008;2023-09-08T09:05:18;24.53;;;18.03;;
8252;SDS011;61313;48.396;10.008;2023-09-08T09:07:44;23.27;;;16.60;;
8252;SDS011;61313;48.396;10.008;2023-09-08T09:10:10;22.97;;;15.17;;
8252;SDS011;61313;48.396;10.008;2023-09-08T09:12:39;26.00;;;17.67;;
8252;SDS011;61313;48.396;10.008;2023-09-08T09:15:05;17.73;;;13.40;;
8252;SDS011;61313;48.396;10.008;2023-09-08T09:17:33;22.80;;;13.53;;
8252;SDS011;61313;48.396;10.008;2023-09-08T09:22:57;13.33;;;10.87;;
8252;SDS011;61313;48.396;10.008;2023-09-08T09:25:24;21.97;;;14.17;;
8252;SDS011;61313;48.396;10.008;2023-09-08T09:27:57;21.43;;;13.20;;
8252;SDS011;61313;48.396;10.008;2023-09-08T09:30:24;16.50;;;11.63;;
8252;SDS011;61313;48.396;10.008;2023-09-08T09:33:03;15.00;;;11.30;;
8252;SDS011;61313;48.396;10.008;2023-09-08T09:35:43;15.70;;;14.30;;
8252;SDS011;61313;48.396;10.008;2023-09-08T09:38:10;17.10;;;14.67;;
8252;SDS011;61313;48.396;10.008;2023-09-08T09:40:36;14.80;;;13.23;;
8252;SDS011;61313;48.396;10.008;2023-09-08T09:43:03;15.87;;;14.20;;
8252;SDS011;61313;48.396;10.008;2023-09-08T09:45:31;17.13;;;14.40;;
8252;SDS011;61313;48.396;10.008;2023-09-08T09:47:59;13.70;;;10.23;;
8252;SDS011;61313;48.396;10.008;2023-09-08T09:50:28;9.43;;;8.53;;
8252;SDS011;61313;48.396;10.008;2023-09-08T09:53:01;8.83;;;7.50;;
8252;SDS011;61313;48.396;10.008;2023-09-08T09:55:32;12.70;;;8.90;;
8252;SDS011;61313;48.396;10.008;2023-09-08T09:57:59;14.80;;;9.93;;
8252;SDS011;61313;48.396;10.008;2023-09-08T10:00:29;12.10;;;10.50;;
8252;SDS011;61313;48.396;10.008;2023-09-08T10:02:57;11.77;;;9.40;;
8252;SDS011;61313;48.396;10.008;2023-09-08T10:05:24;10.00;;;8.90;;
8252;SDS011;61313;48.396;10.008;2023-09-08T10:07:50;10.70;;;9.60;;
8252;SDS011;61313;48.396;10.008;2023-09-08T10:10:16;12.93;;;8.30;;
8252;SDS011;61313;48.396;10.008;2023-09-08T10:12:43;9.30;;;8.40;;
8252;SDS011;61313;48.396;10.008;2023-09-08T10:15:10;9.60;;;8.80;;
8252;SDS011;61313;48.396;10.008;2023-09-08T10:17:37;19.40;;;10.70;;
8252;SDS011;61313;48.396;10.008;2023-09-08T10:20:05;8.83;;;7.93;;
8252;SDS011;61313;48.396;10.008;2023-09-08T10:23:00;8.10;;;7.30;;
8252;SDS011;61313;48.396;10.008;2023-09-08T10:25:31;10.47;;;9.13;;
8252;SDS011;61313;48.396;10.008;2023-09-08T10:28:03;9.40;;;7.70;;
8252;SDS011;61313;48.396;10.008;2023-09-08T10:30:29;12.07;;;8.90;;
8252;SDS011;61313;48.396;10.008;2023-09-08T10:32:56;13.27;;;9.77;;
8252;SDS011;61313;48.396;10.008;2023-09-08T10:35:22;9.33;;;8.40;;
8252;SDS011;61313;48.396;10.008;2023-09-08T10:37:48;12.90;;;11.13;;
8252;SDS011;61313;48.396;10.008;2023-09-08T10:40:20;10.20;;;8.57;;
8252;SDS011;61313;48.396;10.008;2023-09-08T10:42:47;11.90;;;9.10;;
8252;SDS011;61313;48.396;10.008;2023-09-08T10:45:17;15.67;;;10.80;;
8252;SDS011;61313;48.396;10.008;2023-09-08T10:50:18;21.30;;;12.60;;
8252;SDS011;61313;48.396;10.008;2023-09-08T10:52:44;12.60;;;9.13;;
8252;SDS011;61313;48.396;10.008;2023-09-08T10:55:11;10.33;;;8.97;;
8252;SDS011;61313;48.396;10.008;2023-09-08T10:57:38;12.07;;;9.30;;
8252;SDS011;61313;48.396;10.008;2023-09-08T11:00:10;15.13;;;10.17;;
8252;SDS011;61313;48.396;10.008;2023-09-08T11:02:40;10.00;;;9.10;;
8252;SDS011;61313;48.396;10.008;2023-09-08T11:05:08;10.73;;;9.63;;
8252;SDS011;61313;48.396;10.008;2023-09-08T11:07:38;10.77;;;9.50;;
8252;SDS011;61313;48.396;10.008;2023-09-08T11:10:05;10.20;;;9.20;;
8252;SDS011;61313;48.396;10.008;2023-09-08T11:12:31;10.20;;;9.30;;
8252;SDS011;61313;48.396;10.008;2023-09-08T11:14:57;12.07;;;10.03;;
8252;SDS011;61313;48.396;10.008;2023-09-08T11:17:28;13.97;;;11.60;;
8252;SDS011;61313;48.396;10.008;2023-09-08T11:19:53;14.10;;;12.60;;
8252;SDS011;61313;48.396;10.008;2023-09-08T11:22:21;12.00;;;10.83;;
8252;SDS011;61313;48.396;10.008;2023-09-08T11:24:49;17.63;;;9.30;;
8252;SDS011;61313;48.396;10.008;2023-09-08T11:27:16;9.57;;;8.67;;
8252;SDS011;61313;48.396;10.008;2023-09-08T11:29:42;10.73;;;9.63;;
8252;SDS011;61313;48.396;10.008;2023-09-08T11:32:09;13.00;;;11.70;;
8252;SDS011;61313;48.396;10.008;2023-09-08T11:34:35;11.83;;;10.57;;
8252;SDS011;61313;48.396;10.008;2023-09-08T11:37:11;11.30;;;10.03;;
8252;SDS011;61313;48.396;10.008;2023-09-08T11:39:45;11.93;;;9.47;;
8252;SDS011;61313;48.396;10.008;2023-09-08T11:42:14;10.10;;;9.20;;
8252;SDS011;61313;48.396;10.008;2023-09-08T11:44:41;11.33;;;9.60;;
8252;SDS011;61313;48.396;10.008;2023-09-08T11:47:08;11.97;;;10.80;;
8252;SDS011;61313;48.396;10.008;2023-09-08T11:49:35;10.67;;;8.10;;
8252;SDS011;61313;48.396;10.008;2023-09-08T11:52:02;9.97;;;8.97;;
8252;SDS011;61313;48.396;10.008;2023-09-08T11:54:29;10.97;;;10.07;;
8252;SDS011;61313;48.396;10.008;2023-09-08T11:56:56;9.10;;;8.30;;
8252;SDS011;61313;48.396;10.008;2023-09-08T11:59:24;9.70;;;8.80;;
8252;SDS011;61313;48.396;10.008;2023-09-08T12:01:51;10.50;;;8.70;;
8252;SDS011;61313;48.396;10.008;2023-09-08T12:04:17;10.37;;;9.30;;
8252;SDS011;61313;48.396;10.008;2023-09-08T12:06:44;11.40;;;10.30;;
8252;SDS011;61313;48.396;10.008;2023-09-08T12:09:09;10.60;;;8.40;;
8252;SDS011;61313;48.396;10.008;2023-09-08T12:11:35;9.73;;;8.73;;
8252;SDS011;61313;48.396;10.008;2023-09-08T12:14:06;8.07;;;7.23;;
8252;SDS011;61313;48.396;10.008;2023-09-08T12:16:32;17.17;;;8.13;;
8252;SDS011;61313;48.396;10.008;2023-09-08T12:18:57;9.37;;;8.57;;
8252;SDS011;61313;48.396;10.008;2023-09-08T12:21:23;9.77;;;8.87;;
8252;SDS011;61313;48.396;10.008;2023-09-08T12:23:49;10.13;;;9.23;;
8252;SDS011;61313;48.396;10.008;2023-09-08T12:26:15;10.00;;;9.03;;
8252;SDS011;61313;48.396;10.008;2023-09-08T12:28:41;10.20;;;9.10;;
8252;SDS011;61313;48.396;10.008;2023-09-08T12:31:08;9.57;;;8.77;;
8252;SDS011;61313;48.396;10.008;2023-09-08T12:33:35;12.13;;;9.00;;
8252;SDS011;61313;48.396;10.008;2023-09-08T12:36:09;8.87;;;8.17;;
8252;SDS011;61313;48.396;10.008;2023-09-08T12:38:39;11.13;;;8.60;;
8252;SDS011;61313;48.396;10.008;2023-09-08T12:41:05;9.70;;;8.70;;
8252;SDS011;61313;48.396;10.008;2023-09-08T12:43:30;9.67;;;8.77;;
8252;SDS011;61313;48.396;10.008;2023-09-08T12:45:56;10.43;;;8.33;;
8252;SDS011;61313;48.396;10.008;2023-09-08T12:48:21;8.37;;;7.07;;
8252;SDS011;61313;48.396;10.008;2023-09-08T12:50:47;7.33;;;6.73;;
8252;SDS011;61313;48.396;10.008;2023-09-08T12:53:13;8.50;;;7.70;;
8252;SDS011;61313;48.396;10.008;2023-09-08T12:55:39;8.90;;;7.50;;
8252;SDS011;61313;48.396;10.008;2023-09-08T12:58:04;12.87;;;8.60;;
8252;SDS011;61313;48.396;10.008;2023-09-08T13:00:30;8.50;;;7.70;;
8252;SDS011;61313;48.396;10.008;2023-09-08T13:02:55;11.20;;;8.40;;
8252;SDS011;61313;48.396;10.008;2023-09-08T13:05:21;8.37;;;7.57;;
8252;SDS011;61313;48.396;10.008;2023-09-08T13:07:46;8.13;;;7.37;;
8252;SDS011;61313;48.396;10.008;2023-09-08T13:10:11;8.10;;;7.33;;
8252;SDS011;61313;48.396;10.008;2023-09-08T13:12:37;14.07;;;8.07;;
8252;SDS011;61313;48.396;10.008;2023-09-08T13:15:02;9.20;;;6.97;;
8252;SDS011;61313;48.396;10.008;2023-09-08T13:17:28;8.33;;;7.57;;
8252;SDS011;61313;48.396;10.008;2023-09-08T13:19:53;8.67;;;7.33;;
8252;SDS011;61313;48.396;10.008;2023-09-08T13:22:19;10.40;;;7.30;;
8252;SDS011;61313;48.396;10.008;2023-09-08T13:24:45;11.03;;;8.00;;
8252;SDS011;61313;48.396;10.008;2023-09-08T13:27:10;10.27;;;9.23;;
8252;SDS011;61313;48.396;10.008;2023-09-08T13:29:36;9.37;;;8.40;;
8252;SDS011;61313;48.396;10.008;2023-09-08T13:32:03;14.60;;;7.70;;
8252;SDS011;61313;48.396;10.008;2023-09-08T13:34:29;7.60;;;6.90;;
8252;SDS011;61313;48.396;10.008;2023-09-08T13:36:55;7.10;;;6.50;;
8252;SDS011;61313;48.396;10.008;2023-09-08T13:39:20;8.70;;;7.90;;
8252;SDS011;61313;48.396;10.008;2023-09-08T13:41:55;7.33;;;6.63;;
8252;SDS011;61313;48.396;10.008;2023-09-08T13:44:22;8.73;;;8.03;;
8252;SDS011;61313;48.396;10.008;2023-09-08T13:46:51;8.57;;;7.87;;
8252;SDS011;61313;48.396;10.008;2023-09-08T13:49:18;7.87;;;7.17;;
8252;SDS011;61313;48.396;10.008;2023-09-08T13:51:44;8.00;;;7.30;;
8252;SDS011;61313;48.396;10.008;2023-09-08T13:54:12;8.80;;;7.57;;
8252;SDS011;61313;48.396;10.008;2023-09-08T13:56:38;8.50;;;7.70;;
8252;SDS011;61313;48.396;10.008;2023-09-08T13:59:05;6.90;;;6.30;;
8252;SDS011;61313;48.396;10.008;2023-09-08T14:01:32;13.40;;;7.80;;
8252;SDS011;61313;48.396;10.008;2023-09-08T14:03:59;8.23;;;7.40;;
8252;SDS011;61313;48.396;10.008;2023-09-08T14:06:25;8.30;;;7.60;;
8252;SDS011;61313;48.396;10.008;2023-09-08T14:08:51;11.10;;;7.50;;
8252;SDS011;61313;48.396;10.008;2023-09-08T14:11:17;8.30;;;7.60;;
8252;SDS011;61313;48.396;10.008;2023-09-08T14:13:42;8.57;;;7.67;;
8252;SDS011;61313;48.396;10.008;2023-09-08T14:16:08;9.10;;;7.80;;
8252;SDS011;61313;48.396;10.008;2023-09-08T14:18:34;8.50;;;7.13;;
8252;SDS011;61313;48.396;10.008;2023-09-08T14:20:59;10.93;;;6.87;;
8252;SDS011;61313;48.396;10.008;2023-09-08T14:23:25;10.10;;;8.80;;
8252;SDS011;61313;48.396;10.008;2023-09-08T14:25:51;8.40;;;7.47;;
8252;SDS011;61313;48.396;10.008;2023-09-08T14:28:17;8.53;;;7.20;;
8252;SDS011;61313;48.396;10.008;2023-09-08T14:30:42;8.80;;;7.53;;
8252;SDS011;61313;48.396;10.008;2023-09-08T14:33:09;8.80;;;7.60;;
8252;SDS011;61313;48.396;10.008;2023-09-08T14:35:35;8.73;;;7.60;;
8252;SDS011;61313;48.396;10.008;2023-09-08T14:38:00;7.90;;;7.07;;